Time;durP1;ratioP1;P1;durP2;ratioP2;P2;SDS_P1;SDS_P2;PMS_P1;PMS_P2;Temp;Humidity;BMP_temperature;BMP_pressure;BME280_temperature;BME280_humidity;BME280_pressure;Samples;Min_cycle;Max_cycle;Signal;HPM_P1;HPM_P2
2022/08/21 00:01:35;;;;;;;15.02;6.88;;;15.20;99.90;;;;;;4984500;28;20028;-86
2022/08/21 00:04:06;;;;;;;17.70;6.57;;;15.30;99.90;;;;;;4982515;28;20073;-86
2022/08/21 00:06:35;;;;;;;17.30;7.53;;;15.30;99.90;;;;;;4984064;28;20050;-86
2022/08/21 00:09:03;;;;;;;12.10;6.15;;;15.30;99.90;;;;;;4991864;28;20035;-86
2022/08/21 00:11:29;;;;;;;11.32;5.85;;;15.40;99.90;;;;;;5008145;28;20062;-86
2022/08/21 00:13:55;;;;;;;12.02;5.78;;;15.40;99.90;;;;;;4993399;28;20038;-86
2022/08/21 00:16:21;;;;;;;14.70;6.22;;;15.40;99.90;;;;;;4991836;28;20026;-86
2022/08/21 00:18:46;;;;;;;12.75;5.28;;;15.50;99.90;;;;;;4990264;28;20019;-86
2022/08/21 00:21:13;;;;;;;13.10;5.63;;;15.60;99.90;;;;;;4992279;28;20562;-86
2022/08/21 00:23:39;;;;;;;15.18;6.10;;;15.50;99.90;;;;;;4991812;28;20026;-86
2022/08/21 00:26:05;;;;;;;15.40;5.90;;;15.50;99.90;;;;;;4990919;28;20033;-86
2022/08/21 00:28:31;;;;;;;14.32;6.63;;;15.40;99.90;;;;;;4988281;28;20035;-86
2022/08/21 00:30:58;;;;;;;14.98;6.30;;;15.40;99.90;;;;;;4991656;28;20069;-86
2022/08/21 00:33:24;;;;;;;16.58;5.47;;;15.50;99.90;;;;;;4985115;28;20023;-86
2022/08/21 00:35:49;;;;;;;15.60;6.38;;;15.70;99.90;;;;;;4994335;28;20474;-86
2022/08/21 00:38:15;;;;;;;13.07;5.82;;;16.00;99.90;;;;;;4989937;28;20055;-86
2022/08/21 00:40:50;;;;;;;14.63;5.57;;;16.10;99.90;;;;;;4991089;28;20034;-86
2022/08/21 00:43:20;;;;;;;12.80;5.13;;;16.00;99.90;;;;;;4993691;28;20026;-86
2022/08/21 00:45:46;;;;;;;16.60;5.97;;;15.80;99.90;;;;;;4985945;28;20030;-86
2022/08/21 00:48:13;;;;;;;14.90;5.78;;;15.70;99.90;;;;;;4987551;28;20030;-86
2022/08/21 00:50:45;;;;;;;17.10;6.20;;;15.50;99.90;;;;;;4992452;28;20487;-86
2022/08/21 00:53:13;;;;;;;17.25;5.95;;;15.40;99.90;;;;;;4988466;28;20035;-86
2022/08/21 00:55:40;;;;;;;17.35;7.25;;;15.30;99.90;;;;;;4993844;28;20027;-86
2022/08/21 00:58:09;;;;;;;11.90;6.35;;;15.20;99.90;;;;;;5001065;28;20035;-86
2022/08/21 01:00:38;;;;;;;12.50;6.15;;;15.10;99.90;;;;;;4990984;28;20034;-86
2022/08/21 01:03:12;;;;;;;18.88;7.18;;;14.90;99.90;;;;;;4983921;28;20049;-86
2022/08/21 01:05:39;;;;;;;14.40;7.85;;;14.90;99.90;;;;;;4992101;28;20545;-86
2022/08/21 01:08:06;;;;;;;12.40;6.82;;;14.90;99.90;;;;;;4991494;28;20030;-86
2022/08/21 01:10:33;;;;;;;17.45;7.35;;;14.90;99.90;;;;;;4982541;28;20088;-86
2022/08/21 01:12:59;;;;;;;16.60;7.45;;;14.90;99.90;;;;;;4991598;28;20074;-86
2022/08/21 01:15:35;;;;;;;15.40;7.50;;;14.80;99.90;;;;;;4988450;28;20029;-86
2022/08/21 01:18:04;;;;;;;13.85;7.55;;;14.70;99.90;;;;;;4990438;28;20026;-86
2022/08/21 01:20:30;;;;;;;18.67;8.00;;;14.80;99.90;;;;;;4991428;28;20122;-86
2022/08/21 01:22:56;;;;;;;20.02;8.55;;;15.00;99.90;;;;;;4991920;28;20116;-86
2022/08/21 01:25:22;;;;;;;15.63;7.85;;;15.10;99.90;;;;;;4988815;28;20391;-86
2022/08/21 01:27:48;;;;;;;21.15;8.30;;;15.20;99.90;;;;;;4982012;28;20045;-86
2022/08/21 01:30:22;;;;;;;16.40;8.10;;;15.30;99.90;;;;;;4999138;28;20092;-86
2022/08/21 01:32:48;;;;;;;19.95;7.80;;;15.40;99.90;;;;;;4989751;28;20034;-86
2022/08/21 01:35:16;;;;;;;18.52;7.82;;;15.60;99.90;;;;;;4987257;28;20027;-86
2022/08/21 01:37:42;;;;;;;17.55;7.32;;;15.70;99.90;;;;;;4988672;28;20026;-86
2022/08/21 01:40:10;;;;;;;17.48;7.45;;;15.70;99.90;;;;;;4995567;28;20037;-86
2022/08/21 01:42:36;;;;;;;19.10;7.18;;;15.70;99.90;;;;;;4986027;28;20023;-86
2022/08/21 01:45:04;;;;;;;16.52;7.65;;;15.70;99.90;;;;;;4995047;28;20064;-84
2022/08/21 01:47:29;;;;;;;16.75;7.50;;;15.70;99.90;;;;;;4979507;28;20567;-84
2022/08/21 01:49:55;;;;;;;11.88;5.95;;;15.60;99.90;;;;;;4995827;28;20109;-84
2022/08/21 01:52:21;;;;;;;15.65;6.78;;;15.60;99.90;;;;;;4991083;28;20026;-84
2022/08/21 01:54:47;;;;;;;13.48;6.40;;;15.60;99.90;;;;;;4990392;28;20030;-84
2022/08/21 01:57:13;;;;;;;15.35;7.25;;;15.60;99.90;;;;;;4995122;28;20027;-84
2022/08/21 01:59:39;;;;;;;16.55;7.45;;;15.60;99.90;;;;;;4989122;28;20114;-84
2022/08/21 02:02:05;;;;;;;14.18;7.85;;;15.60;99.90;;;;;;4990869;28;20148;-84
2022/08/21 02:04:32;;;;;;;16.75;8.07;;;15.60;99.90;;;;;;4992383;28;20027;-84
2022/08/21 02:06:58;;;;;;;14.27;7.20;;;15.50;99.90;;;;;;4979235;28;20097;-84
2022/08/21 02:09:24;;;;;;;16.15;7.78;;;15.50;99.90;;;;;;4993425;28;20030;-84
2022/08/21 02:11:51;;;;;;;19.15;7.70;;;15.40;99.90;;;;;;4985246;28;20113;-84
2022/08/21 02:14:17;;;;;;;14.82;8.05;;;15.30;99.90;;;;;;4993215;28;20085;-84
2022/08/21 02:16:44;;;;;;;15.82;8.05;;;15.10;99.90;;;;;;4990756;28;20470;-84
2022/08/21 02:19:11;;;;;;;22.75;8.98;;;14.90;99.90;;;;;;4993615;28;20117;-84
2022/08/21 02:21:37;;;;;;;18.50;8.27;;;15.00;99.90;;;;;;4989928;28;20570;-84
2022/08/21 02:24:04;;;;;;;16.40;8.38;;;14.90;99.90;;;;;;4991324;28;20027;-84
2022/08/21 02:26:30;;;;;;;16.83;9.13;;;14.70;99.90;;;;;;4990230;28;20042;-84
2022/08/21 02:28:55;;;;;;;18.67;8.73;;;14.50;99.90;;;;;;4985684;28;20027;-84
2022/08/21 02:31:21;;;;;;;15.52;8.90;;;14.40;99.90;;;;;;4986720;28;20069;-84
2022/08/21 02:33:47;;;;;;;17.48;9.55;;;14.20;99.90;;;;;;4990541;28;20031;-84
2022/08/21 02:36:13;;;;;;;21.05;10.52;;;14.20;99.90;;;;;;4984456;28;20014;-84
2022/08/21 02:38:41;;;;;;;21.88;10.52;;;14.20;99.90;;;;;;4995157;28;20073;-84
2022/08/21 02:41:10;;;;;;;22.88;10.93;;;14.10;99.90;;;;;;4993609;28;20048;-84
2022/08/21 02:43:36;;;;;;;24.03;10.80;;;14.00;99.90;;;;;;4993074;28;20113;-84
2022/08/21 02:46:05;;;;;;;22.55;12.20;;;13.90;99.90;;;;;;4990356;28;20061;-84
2022/08/21 02:48:32;;;;;;;19.83;10.70;;;14.00;99.90;;;;;;4993248;28;20027;-84
2022/08/21 02:51:01;;;;;;;21.90;11.25;;;13.80;99.90;;;;;;4992978;28;20030;-84
2022/08/21 02:53:28;;;;;;;20.15;11.40;;;13.70;99.90;;;;;;4985767;28;20109;-84
2022/08/21 02:55:57;;;;;;;21.40;11.13;;;13.60;99.90;;;;;;4991961;28;20490;-84
2022/08/21 02:58:27;;;;;;;23.25;11.30;;;13.60;99.90;;;;;;4992206;28;20609;-84
2022/08/21 03:00:53;;;;;;;23.48;12.90;;;13.50;99.90;;;;;;4979953;28;20049;-84
2022/08/21 03:03:20;;;;;;;22.80;13.43;;;13.60;99.90;;;;;;4986467;28;20027;-84
2022/08/21 03:05:47;;;;;;;28.92;14.85;;;13.60;99.90;;;;;;4992190;28;20093;-84
2022/08/21 03:08:14;;;;;;;25.40;14.15;;;13.60;99.90;;;;;;4992006;28;20407;-84
2022/08/21 03:10:43;;;;;;;22.85;13.70;;;13.70;99.90;;;;;;4987795;28;20089;-84
2022/08/21 03:13:09;;;;;;;28.40;15.00;;;13.70;99.90;;;;;;4990000;28;20372;-84
2022/08/21 03:15:35;;;;;;;25.17;14.23;;;13.60;99.90;;;;;;4992992;28;20057;-84
2022/08/21 03:18:03;;;;;;;26.40;13.25;;;13.50;99.90;;;;;;4994223;28;20022;-84
2022/08/21 03:20:32;;;;;;;23.60;12.88;;;13.50;99.90;;;;;;4992785;28;20034;-84
2022/08/21 03:22:58;;;;;;;26.58;14.07;;;13.60;99.90;;;;;;4991904;28;20030;-84
2022/08/21 03:25:25;;;;;;;26.27;13.75;;;13.50;99.90;;;;;;4990349;28;20533;-84
2022/08/21 03:27:51;;;;;;;26.13;13.98;;;13.40;99.90;;;;;;4987572;28;20038;-84
2022/08/21 03:30:19;;;;;;;24.20;13.70;;;13.30;99.90;;;;;;4983101;28;20030;-84
2022/08/21 03:32:46;;;;;;;24.17;13.30;;;13.20;99.90;;;;;;4992505;28;20089;-84
2022/08/21 03:35:13;;;;;;;26.95;13.95;;;13.20;99.90;;;;;;4989868;28;20030;-84
2022/08/21 03:37:39;;;;;;;24.88;14.38;;;13.20;99.90;;;;;;4993640;28;20057;-84
2022/08/21 03:40:07;;;;;;;26.17;13.68;;;13.20;99.90;;;;;;4991474;28;20101;-84
2022/08/21 03:42:32;;;;;;;27.50;14.30;;;13.10;99.90;;;;;;4991630;28;20084;-84
2022/08/21 03:44:58;;;;;;;21.45;13.32;;;13.10;99.90;;;;;;4990662;28;20058;-84
2022/08/21 03:47:24;;;;;;;25.80;14.02;;;13.10;99.90;;;;;;4988627;28;20125;-85
2022/08/21 03:49:50;;;;;;;25.35;14.77;;;13.00;99.90;;;;;;4974570;28;20087;-83
2022/08/21 03:52:16;;;;;;;25.23;14.00;;;13.00;99.90;;;;;;4984058;28;20030;-83
2022/08/21 03:54:43;;;;;;;27.60;14.70;;;12.90;99.90;;;;;;4983933;28;20119;-83
2022/08/21 03:57:09;;;;;;;22.42;12.95;;;12.80;99.90;;;;;;4991995;28;20022;-83
2022/08/21 03:59:35;;;;;;;20.92;12.32;;;12.70;99.90;;;;;;4990812;28;20045;-83
2022/08/21 04:02:03;;;;;;;24.83;13.93;;;12.60;99.90;;;;;;4990075;28;20022;-85
2022/08/21 04:04:29;;;;;;;27.80;15.02;;;12.60;99.90;;;;;;4989852;28;20050;-85
2022/08/21 04:06:56;;;;;;;25.58;14.65;;;12.50;99.90;;;;;;4990479;28;20499;-85
2022/08/21 04:09:22;;;;;;;25.85;14.48;;;12.60;99.90;;;;;;4990270;28;20018;-85
2022/08/21 04:11:48;;;;;;;21.67;12.80;;;12.60;99.90;;;;;;4990045;28;20034;-85
2022/08/21 04:14:15;;;;;;;28.38;14.30;;;12.70;99.90;;;;;;4989767;28;20615;-85
2022/08/21 04:16:42;;;;;;;27.23;14.85;;;12.70;99.90;;;;;;4987582;28;20026;-85
2022/08/21 04:19:09;;;;;;;29.52;16.83;;;12.60;99.90;;;;;;4980358;28;20041;-85
2022/08/21 04:21:37;;;;;;;27.38;15.70;;;12.50;99.90;;;;;;4990583;28;20031;-85
2022/08/21 04:24:03;;;;;;;29.17;16.55;;;12.60;99.90;;;;;;4987688;28;20520;-85
2022/08/21 04:26:30;;;;;;;32.40;18.10;;;12.70;99.90;;;;;;4987033;28;20035;-85
2022/08/21 04:28:57;;;;;;;33.78;18.67;;;12.80;99.90;;;;;;4983625;28;20030;-85
2022/08/21 04:31:23;;;;;;;40.83;18.83;;;12.90;99.90;;;;;;4989125;28;20574;-85
2022/08/21 04:33:49;;;;;;;40.15;20.55;;;13.00;99.90;;;;;;4983693;28;20026;-85
2022/08/21 04:36:15;;;;;;;31.77;18.40;;;13.20;99.90;;;;;;4985286;28;20019;-85
2022/08/21 04:38:41;;;;;;;35.55;20.25;;;13.20;99.90;;;;;;4987790;28;20081;-85
2022/08/21 04:41:07;;;;;;;34.63;18.92;;;13.20;99.90;;;;;;4986131;28;20452;-85
2022/08/21 04:43:33;;;;;;;45.45;20.27;;;13.20;99.90;;;;;;4983328;28;20058;-85
2022/08/21 04:46:00;;;;;;;30.63;18.52;;;13.30;99.90;;;;;;4981320;28;20038;-85
2022/08/21 04:48:25;;;;;;;36.10;18.85;;;13.10;99.90;;;;;;4990141;28;20026;-85
2022/08/21 04:51:06;;;;;;;36.20;17.85;;;13.10;99.90;;;;;;4981155;28;20085;-85
2022/08/21 04:53:41;;;;;;;32.30;17.85;;;13.20;99.90;;;;;;4995899;28;20041;-85
2022/08/21 04:56:21;;;;;;;30.95;17.27;;;13.30;99.90;;;;;;4989524;28;20049;-85
2022/08/21 04:58:49;;;;;;;29.80;17.50;;;13.20;99.90;;;;;;4986474;28;20054;-85
2022/08/21 05:01:19;;;;;;;32.70;16.92;;;13.20;99.90;;;;;;4989225;28;20033;-85
2022/08/21 05:03:47;;;;;;;33.88;16.92;;;13.30;99.90;;;;;;4989073;28;20080;-85
2022/08/21 05:06:15;;;;;;;32.30;16.63;;;13.40;99.90;;;;;;4988997;28;20054;-85
2022/08/21 05:08:43;;;;;;;29.25;17.02;;;13.60;99.90;;;;;;4988307;28;20038;-85
2022/08/21 05:11:09;;;;;;;25.70;16.73;;;13.70;99.90;;;;;;4987752;28;20053;-85
2022/08/21 05:13:35;;;;;;;24.67;14.57;;;13.80;99.90;;;;;;4977786;28;20038;-85
2022/08/21 05:16:01;;;;;;;23.75;14.00;;;13.80;99.90;;;;;;4985181;28;20023;-85
2022/08/21 05:18:27;;;;;;;25.27;13.93;;;13.80;99.90;;;;;;4989225;28;20035;-85
2022/08/21 05:20:52;;;;;;;26.35;14.55;;;13.80;99.90;;;;;;4990902;28;20550;-85
2022/08/21 05:23:18;;;;;;;23.35;13.90;;;13.80;99.90;;;;;;4987584;28;20053;-85
2022/08/21 05:25:44;;;;;;;29.55;15.25;;;13.80;99.90;;;;;;4988279;28;20035;-85
2022/08/21 05:28:10;;;;;;;27.35;14.75;;;13.90;99.90;;;;;;4987126;28;20038;-85
2022/08/21 05:30:37;;;;;;;28.58;14.38;;;14.00;99.90;;;;;;4987249;28;20038;-85
2022/08/21 05:33:04;;;;;;;23.52;13.55;;;14.10;99.90;;;;;;4986129;28;20134;-85
2022/08/21 05:35:32;;;;;;;29.63;13.82;;;14.30;99.90;;;;;;4986078;28;20041;-85
2022/08/21 05:37:59;;;;;;;23.73;12.85;;;14.50;99.90;;;;;;4984067;28;20487;-85
2022/08/21 05:40:25;;;;;;;22.08;12.15;;;14.70;99.90;;;;;;4989214;28;20098;-85
2022/08/21 05:42:53;;;;;;;18.45;10.90;;;14.90;99.90;;;;;;4989413;28;20034;-85
2022/08/21 05:45:19;;;;;;;24.05;10.85;;;15.00;99.90;;;;;;4984412;28;20062;-85
2022/08/21 05:47:44;;;;;;;19.10;10.73;;;15.10;99.90;;;;;;4982678;28;20081;-85
2022/08/21 05:50:10;;;;;;;22.45;11.73;;;15.10;99.90;;;;;;4988167;28;20030;-85
2022/08/21 05:52:36;;;;;;;25.25;11.05;;;15.20;99.90;;;;;;4987559;28;20098;-85
2022/08/21 05:55:04;;;;;;;23.45;11.27;;;15.30;99.90;;;;;;4989214;28;20105;-85
2022/08/21 05:57:30;;;;;;;17.60;9.70;;;15.40;99.90;;;;;;4989761;28;20049;-84
2022/08/21 05:59:55;;;;;;;19.25;10.50;;;15.50;99.90;;;;;;4986481;28;20499;-83
2022/08/21 06:02:21;;;;;;;18.15;10.32;;;15.50;99.90;;;;;;4988142;28;20072;-82
2022/08/21 06:04:48;;;;;;;18.17;9.82;;;15.70;99.90;;;;;;4986737;28;20042;-81
2022/08/21 06:07:14;;;;;;;20.63;9.27;;;15.80;99.90;;;;;;4980696;28;20030;-82
2022/08/21 06:09:40;;;;;;;18.52;9.15;;;15.90;99.90;;;;;;4977058;28;20053;-80
2022/08/21 06:12:11;;;;;;;17.70;9.65;;;16.00;99.90;;;;;;4977734;28;20033;-80
2022/08/21 06:14:40;;;;;;;22.42;9.63;;;16.10;99.90;;;;;;4975940;28;20105;-82
2022/08/21 06:17:08;;;;;;;19.17;9.18;;;16.30;99.90;;;;;;4978734;28;20452;-82
2022/08/21 06:19:34;;;;;;;19.70;9.02;;;16.40;99.90;;;;;;4975752;28;20022;-82
2022/08/21 06:22:01;;;;;;;19.45;9.27;;;16.60;99.90;;;;;;4994979;28;20038;-82
2022/08/21 06:24:27;;;;;;;22.30;9.18;;;16.80;99.90;;;;;;4985298;28;20065;-82
2022/08/21 06:26:53;;;;;;;22.17;8.93;;;17.00;99.90;;;;;;4983657;28;20058;-81
2022/08/21 06:29:19;;;;;;;16.20;9.15;;;17.10;99.90;;;;;;4977874;28;20027;-80
2022/08/21 06:31:46;;;;;;;23.95;10.38;;;17.20;99.90;;;;;;4979286;28;20026;-82
2022/08/21 06:34:12;;;;;;;17.63;9.25;;;17.30;99.90;;;;;;4985589;28;20502;-81
2022/08/21 06:36:38;;;;;;;19.08;9.02;;;17.40;99.90;;;;;;4984099;28;20058;-81
2022/08/21 06:39:04;;;;;;;16.73;9.02;;;17.60;99.90;;;;;;4985802;28;20015;-82
2022/08/21 06:41:31;;;;;;;19.30;8.65;;;17.70;99.90;;;;;;4990307;28;20026;-82
2022/08/21 06:43:57;;;;;;;16.98;8.60;;;17.80;99.90;;;;;;4982673;28;20038;-80
2022/08/21 06:46:25;;;;;;;15.02;7.50;;;17.90;99.90;;;;;;4987593;28;20035;-81
2022/08/21 06:48:50;;;;;;;17.30;8.07;;;18.00;99.90;;;;;;4978660;28;20483;-82
2022/08/21 06:51:17;;;;;;;15.35;7.07;;;18.10;99.90;;;;;;4992198;28;20026;-81
2022/08/21 06:53:43;;;;;;;17.58;8.10;;;18.20;99.90;;;;;;4984485;28;20031;-82
2022/08/21 06:56:09;;;;;;;15.38;7.05;;;18.40;99.90;;;;;;4986475;28;20084;-81
2022/08/21 06:58:35;;;;;;;18.58;5.90;;;18.50;99.90;;;;;;5004302;28;20038;-81
2022/08/21 07:01:01;;;;;;;10.88;5.60;;;18.50;99.90;;;;;;4990288;28;20033;-81
2022/08/21 07:03:31;;;;;;;12.80;5.97;;;18.50;99.90;;;;;;4976375;28;20041;-81
2022/08/21 07:05:58;;;;;;;12.48;5.90;;;18.50;99.90;;;;;;4998095;28;20059;-81
2022/08/21 07:08:25;;;;;;;12.93;5.72;;;18.50;99.90;;;;;;4982222;28;20506;-83
2022/08/21 07:10:52;;;;;;;14.10;6.50;;;18.60;99.90;;;;;;4974146;28;20035;-82
2022/08/21 07:13:18;;;;;;;16.40;6.30;;;18.70;99.90;;;;;;4983383;28;20027;-79
2022/08/21 07:15:44;;;;;;;14.25;6.68;;;18.70;99.90;;;;;;4978644;28;20031;-79
2022/08/21 07:18:11;;;;;;;13.40;5.85;;;18.80;99.90;;;;;;5006679;28;20129;-79
2022/08/21 07:20:37;;;;;;;20.75;6.28;;;18.90;99.90;;;;;;4992595;28;20045;-80
2022/08/21 07:23:08;;;;;;;12.95;6.28;;;19.00;99.90;;;;;;4985355;28;20026;-82
2022/08/21 07:25:34;;;;;;;18.15;6.22;;;19.00;99.90;;;;;;4985975;28;20565;-82
2022/08/21 07:28:00;;;;;;;14.35;5.70;;;19.10;99.90;;;;;;4989164;28;20054;-81
2022/08/21 07:30:26;;;;;;;15.43;7.10;;;19.10;99.90;;;;;;4984264;28;20066;-82
2022/08/21 07:32:52;;;;;;;13.75;6.57;;;19.20;99.90;;;;;;4994358;28;20023;-82
2022/08/21 07:35:21;;;;;;;14.68;6.63;;;19.30;99.90;;;;;;4979031;28;20038;-81
2022/08/21 07:37:48;;;;;;;12.23;5.63;;;19.40;99.90;;;;;;4975644;28;20033;-82
2022/08/21 07:40:15;;;;;;;20.60;8.63;;;19.40;99.90;;;;;;4984362;28;20474;-82
2022/08/21 07:42:42;;;;;;;18.73;6.90;;;19.40;99.90;;;;;;4986257;28;20023;-81
2022/08/21 07:45:09;;;;;;;12.85;6.45;;;19.50;99.90;;;;;;4984101;28;20030;-82
2022/08/21 07:47:34;;;;;;;18.08;7.32;;;19.60;99.90;;;;;;4985620;28;20084;-81
2022/08/21 07:50:00;;;;;;;16.48;7.05;;;19.70;99.90;;;;;;4982519;28;20026;-81
2022/08/21 07:52:26;;;;;;;20.15;8.00;;;20.00;99.90;;;;;;4980101;28;20395;-81
2022/08/21 07:54:52;;;;;;;17.70;7.43;;;20.10;99.90;;;;;;4982078;28;20463;-82
2022/08/21 07:57:17;;;;;;;15.30;7.78;;;20.10;99.90;;;;;;4979483;28;20117;-81
2022/08/21 07:59:43;;;;;;;17.60;8.23;;;20.00;99.90;;;;;;4988322;28;20145;-81
2022/08/21 08:02:09;;;;;;;19.23;7.65;;;20.00;99.90;;;;;;5004342;28;20422;-81
2022/08/21 08:04:35;;;;;;;14.52;5.88;;;20.00;99.90;;;;;;4985516;28;20038;-82
2022/08/21 08:07:00;;;;;;;13.82;6.32;;;20.10;99.90;;;;;;4977140;28;20046;-82
2022/08/21 08:09:26;;;;;;;19.40;8.23;;;20.20;99.90;;;;;;4982534;28;20134;-82
2022/08/21 08:11:51;;;;;;;15.27;7.82;;;20.10;99.90;;;;;;4995978;28;20565;-82
2022/08/21 08:14:17;;;;;;;18.20;7.60;;;20.30;99.90;;;;;;4982446;28;20019;-81
2022/08/21 08:16:43;;;;;;;15.15;7.65;;;20.60;99.90;;;;;;4979661;28;20027;-81
2022/08/21 08:19:08;;;;;;;13.77;6.97;;;20.80;99.90;;;;;;4983822;28;20033;-81
2022/08/21 08:21:36;;;;;;;17.52;7.03;;;21.00;99.90;;;;;;4979833;28;20034;-81
2022/08/21 08:24:02;;;;;;;13.45;6.97;;;21.30;99.90;;;;;;4992377;28;20027;-81
2022/08/21 08:26:30;;;;;;;18.58;7.60;;;21.70;99.90;;;;;;4979191;28;20049;-82
2022/08/21 08:28:55;;;;;;;14.95;6.82;;;22.00;99.90;;;;;;4985993;28;20054;-82
2022/08/21 08:31:21;;;;;;;13.73;5.57;;;22.30;99.90;;;;;;4987142;28;20062;-83
2022/08/21 08:33:47;;;;;;;14.70;6.70;;;23.40;99.90;;;;;;4983579;28;20415;-82
2022/08/21 08:36:15;;;;;;;17.17;6.32;;;23.50;99.90;;;;;;4985548;28;20030;-82
2022/08/21 08:38:44;;;;;;;16.20;6.22;;;23.50;99.90;;;;;;4981935;28;20126;-83
2022/08/21 08:41:19;;;;;;;15.25;6.35;;;23.60;99.90;;;;;;4987986;28;20027;-83
2022/08/21 08:43:54;;;;;;;14.20;5.78;;;23.80;99.90;;;;;;4984678;28;20015;-83
2022/08/21 08:46:30;;;;;;;12.10;5.63;;;24.40;99.90;;;;;;4986455;28;20787;-81
2022/08/21 08:49:03;;;;;;;12.05;5.30;;;24.50;99.90;;;;;;4988414;28;20479;-81
2022/08/21 08:51:40;;;;;;;15.55;6.00;;;24.90;99.90;;;;;;4986906;28;20767;-81
2022/08/21 08:54:11;;;;;;;12.13;5.22;;;25.20;98.20;;;;;;4981159;28;20030;-83
2022/08/21 08:56:37;;;;;;;16.95;5.07;;;24.70;98.80;;;;;;4987214;28;20651;-82
2022/08/21 08:59:13;;;;;;;11.70;4.65;;;24.50;98.40;;;;;;4982696;28;20032;-83
2022/08/21 09:01:39;;;;;;;9.27;4.20;;;23.60;99.90;;;;;;4986437;28;20461;-83
2022/08/21 09:04:05;;;;;;;10.02;4.18;;;23.00;99.90;;;;;;4982837;28;20126;-83
2022/08/21 09:06:51;;;;;;;12.73;3.70;;;22.70;99.90;;;;;;4983217;28;20047;-83
2022/08/21 09:09:26;;;;;;;12.27;4.15;;;22.70;99.90;;;;;;4978735;28;20101;-81
2022/08/21 09:12:43;;;;;;;9.80;3.30;;;23.70;99.40;;;;;;5007281;28;20045;-81
2022/08/21 09:15:16;;;;;;;8.57;2.83;;;24.70;96.80;;;;;;4968839;28;20069;-81
2022/08/21 09:18:00;;;;;;;9.50;3.03;;;25.70;93.70;;;;;;5002993;28;20490;-81
2022/08/21 09:20:31;;;;;;;14.73;3.00;;;26.20;91.80;;;;;;4980014;28;20030;-83
2022/08/21 09:23:19;;;;;;;11.65;2.63;;;25.90;91.50;;;;;;4997184;28;20397;-83
2022/08/21 09:25:59;;;;;;;9.50;2.97;;;25.80;90.40;;;;;;4998650;28;20030;-83
2022/08/21 09:28:26;;;;;;;10.88;2.67;;;25.80;89.90;;;;;;4976052;28;20444;-81
2022/08/21 09:30:55;;;;;;;12.45;3.30;;;26.30;89.40;;;;;;4975889;28;20150;-82
2022/08/21 09:33:21;;;;;;;9.05;2.42;;;26.90;87.60;;;;;;4979381;28;20035;-81
2022/08/21 09:35:53;;;;;;;8.85;2.83;;;27.40;84.20;;;;;;4983251;28;20031;-81
2022/08/21 09:38:31;;;;;;;10.63;2.75;;;27.00;85.80;;;;;;4986260;28;20030;-82
2022/08/21 09:41:26;;;;;;;6.72;2.38;;;26.90;85.50;;;;;;5000160;28;20109;-81
2022/08/21 09:43:54;;;;;;;10.93;2.83;;;26.80;85.70;;;;;;4981454;28;20034;-82
2022/08/21 09:46:22;;;;;;;7.85;2.30;;;27.10;83.60;;;;;;4981972;28;20038;-81
2022/08/21 09:48:53;;;;;;;11.73;2.10;;;26.80;85.40;;;;;;4987019;28;20487;-82
2022/08/21 09:51:22;;;;;;;8.57;2.13;;;27.60;83.20;;;;;;4983482;28;20558;-82
2022/08/21 09:53:55;;;;;;;10.38;2.75;;;28.20;80.20;;;;;;4976564;28;20030;-82
2022/08/21 09:59:19;;;;;;;8.27;2.00;;;27.50;80.70;;;;;;4988463;28;20057;-82
2022/08/21 10:01:49;;;;;;;12.02;2.28;;;27.40;81.90;;;;;;4990462;28;20390;-81
2022/08/21 10:04:19;;;;;;;6.75;1.90;;;27.50;81.10;;;;;;4987442;28;20061;-82
2022/08/21 10:06:44;;;;;;;8.27;2.50;;;26.80;83.40;;;;;;4990155;28;20536;-82
2022/08/21 10:09:16;;;;;;;7.75;2.30;;;25.70;87.60;;;;;;4990532;28;20026;-82
2022/08/21 10:12:13;;;;;;;9.40;2.25;;;25.80;87.30;;;;;;4990474;28;20030;-82
2022/08/21 10:14:57;;;;;;;8.50;1.95;;;26.40;84.80;;;;;;4984867;28;20045;-82
2022/08/21 10:17:52;;;;;;;9.23;2.15;;;26.40;83.10;;;;;;4986619;28;20046;-82
2022/08/21 10:20:28;;;;;;;8.93;1.95;;;27.50;82.50;;;;;;4997021;28;20034;-82
2022/08/21 10:23:09;;;;;;;8.25;2.20;;;28.30;80.60;;;;;;4990313;28;20659;-81
2022/08/21 10:25:50;;;;;;;8.50;2.53;;;28.10;80.50;;;;;;4989639;28;20390;-81
2022/08/21 10:28:30;;;;;;;8.05;2.20;;;27.90;80.60;;;;;;4990486;28;20042;-81
2022/08/21 10:31:03;;;;;;;7.15;2.05;;;28.10;80.60;;;;;;4991284;28;20042;-82
2022/08/21 10:33:46;;;;;;;9.02;2.40;;;28.60;77.80;;;;;;4985563;28;20125;-82
2022/08/21 10:36:15;;;;;;;11.10;2.17;;;28.00;79.80;;;;;;5010550;28;20030;-81
2022/08/21 10:39:06;;;;;;;8.25;2.00;;;28.00;79.60;;;;;;4989548;28;20037;-81
2022/08/21 10:41:49;;;;;;;8.73;2.10;;;27.50;79.00;;;;;;4988251;28;20858;-81
2022/08/21 10:44:38;;;;;;;8.10;2.50;;;26.90;80.50;;;;;;4989528;28;20656;-81
2022/08/21 10:47:21;;;;;;;8.88;2.30;;;26.60;82.50;;;;;;4988569;28;20027;-81
2022/08/21 10:50:04;;;;;;;10.27;1.67;;;27.40;81.20;;;;;;4986073;28;20029;-81
2022/08/21 10:52:48;;;;;;;5.53;1.63;;;28.00;79.50;;;;;;4983480;28;20130;-81
2022/08/21 10:55:24;;;;;;;11.25;2.60;;;27.80;79.80;;;;;;4984239;28;20034;-81
2022/08/21 10:57:52;;;;;;;6.22;1.75;;;28.50;80.10;;;;;;4985362;28;20034;-81
2022/08/21 11:00:23;;;;;;;8.52;2.30;;;27.90;78.60;;;;;;4984987;28;20639;-81
2022/08/21 11:03:02;;;;;;;6.32;1.95;;;28.10;78.20;;;;;;4989333;28;20029;-82
2022/08/21 11:05:31;;;;;;;7.03;1.80;;;28.40;78.00;;;;;;4990644;28;20104;-81
2022/08/21 11:08:11;;;;;;;8.93;2.28;;;28.70;75.80;;;;;;5004271;28;20118;-82
2022/08/21 11:10:43;;;;;;;7.43;2.10;;;27.90;75.40;;;;;;4990816;28;20689;-81
2022/08/21 11:13:32;;;;;;;8.00;1.80;;;28.80;76.20;;;;;;4989812;28;20033;-81
2022/08/21 11:16:25;;;;;;;6.20;1.90;;;29.40;75.00;;;;;;4973362;28;20065;-81
2022/08/21 11:19:08;;;;;;;10.80;2.35;;;29.70;73.50;;;;;;4983389;28;20061;-82
2022/08/21 11:21:46;;;;;;;7.13;2.05;;;30.00;71.50;;;;;;5000740;28;20588;-80
2022/08/21 11:24:34;;;;;;;7.38;1.85;;;29.80;72.80;;;;;;4984164;28;20483;-81
2022/08/21 11:27:12;;;;;;;7.72;2.15;;;30.70;73.20;;;;;;4983461;28;20061;-80
2022/08/21 11:29:40;;;;;;;10.48;2.30;;;30.80;71.20;;;;;;4976630;28;20101;-80
2022/08/21 11:32:24;;;;;;;7.22;2.00;;;29.80;72.80;;;;;;4988738;28;20030;-80
2022/08/21 11:35:22;;;;;;;8.45;1.70;;;30.30;74.10;;;;;;4998048;28;20027;-80
2022/08/21 11:37:54;;;;;;;7.40;1.73;;;31.30;69.90;;;;;;4949561;28;20479;-80
2022/08/21 11:40:35;;;;;;;6.47;1.20;;;29.90;71.80;;;;;;4985264;28;20077;-80
2022/08/21 11:43:36;;;;;;;7.13;1.83;;;29.40;72.20;;;;;;4990674;28;20022;-80
2022/08/21 11:46:39;;;;;;;8.75;2.30;;;30.70;71.10;;;;;;4989331;28;20050;-80
2022/08/21 11:49:05;;;;;;;9.55;1.92;;;30.50;69.30;;;;;;4990427;28;20026;-80
2022/08/21 11:51:46;;;;;;;6.72;1.80;;;30.70;70.30;;;;;;5003726;28;20038;-80
2022/08/21 11:54:24;;;;;;;7.07;1.83;;;31.60;69.40;;;;;;4986938;28;20491;-81
2022/08/21 11:57:00;;;;;;;5.28;1.67;;;31.60;67.90;;;;;;4984819;28;20110;-80
2022/08/21 11:59:49;;;;;;;6.47;1.75;;;29.70;70.60;;;;;;4981697;28;20077;-80
2022/08/21 12:02:19;;;;;;;9.32;2.15;;;30.20;69.60;;;;;;4990300;28;20045;-80
2022/08/21 12:05:07;;;;;;;6.72;1.60;;;30.80;70.00;;;;;;4987285;28;20054;-80
2022/08/21 12:07:33;;;;;;;7.97;2.10;;;30.20;69.60;;;;;;4978960;28;20030;-80
2022/08/21 12:10:00;;;;;;;6.13;1.63;;;30.70;69.90;;;;;;4998424;28;20513;-82
2022/08/21 12:12:32;;;;;;;8.13;1.52;;;31.60;67.40;;;;;;4986954;28;20087;-80
2022/08/21 12:15:04;;;;;;;8.57;1.70;;;30.60;68.30;;;;;;4982535;28;20054;-80
2022/08/21 12:17:39;;;;;;;6.55;1.40;;;30.60;67.90;;;;;;4985347;28;20061;-80
2022/08/21 12:20:20;;;;;;;5.18;1.40;;;30.20;68.10;;;;;;4987824;28;20069;-80
2022/08/21 12:23:12;;;;;;;7.68;1.25;;;30.70;68.60;;;;;;4985541;28;20437;-80
2022/08/21 12:26:02;;;;;;;4.68;1.30;;;28.90;69.60;;;;;;4985749;28;20052;-82
2022/08/21 12:28:30;;;;;;;3.83;1.27;;;27.90;69.80;;;;;;4975496;28;20046;-82
2022/08/21 12:30:57;;;;;;;5.70;1.42;;;27.80;71.10;;;;;;4990776;28;20077;-80
2022/08/21 12:33:35;;;;;;;6.40;1.90;;;29.10;69.90;;;;;;4990752;28;20026;-81
2022/08/21 12:36:10;;;;;;;4.07;1.30;;;30.30;68.70;;;;;;4989674;28;20023;-81
2022/08/21 12:38:56;;;;;;;4.90;1.40;;;29.80;67.00;;;;;;4978946;28;20022;-80
2022/08/21 12:41:32;;;;;;;5.22;1.50;;;29.70;68.20;;;;;;4987826;28;20026;-82
2022/08/21 12:44:13;;;;;;;4.95;1.40;;;30.80;67.80;;;;;;4986498;28;20529;-82
2022/08/21 12:46:56;;;;;;;6.25;1.55;;;30.70;67.90;;;;;;4984520;28;20068;-82
2022/08/21 12:49:37;;;;;;;7.35;1.65;;;30.60;67.90;;;;;;4987294;28;20486;-82
2022/08/21 12:52:21;;;;;;;4.93;1.50;;;31.50;66.50;;;;;;4989426;28;20051;-81
2022/08/21 12:54:46;;;;;;;8.35;1.73;;;32.60;64.60;;;;;;4997504;28;20113;-81